createdAt,value
2023-04-02T00:01:02.486Z,19.10
2023-04-02T00:03:43.989Z,6.40
2023-04-02T00:06:45.049Z,20.30
2023-04-02T00:09:15.664Z,11.80
2023-04-02T00:11:48.728Z,5.50
2023-04-02T00:14:24.243Z,6.30
2023-04-02T00:16:53.650Z,4.90
2023-04-02T00:19:35.389Z,3.50
2023-04-02T00:22:06.554Z,6.20
2023-04-02T00:24:34.066Z,8.50
2023-04-02T00:27:01.428Z,5.90
2023-04-02T00:29:28.599Z,9.20
2023-04-02T00:31:59.940Z,5.00
2023-04-02T00:34:34.091Z,11.50
2023-04-02T00:37:02.024Z,5.70
2023-04-02T00:39:33.238Z,2.50
2023-04-02T00:42:06.702Z,9.60
2023-04-02T00:44:42.878Z,7.10
2023-04-02T00:47:20.386Z,3.70
2023-04-02T00:49:53.935Z,3.00
2023-04-02T00:52:26.229Z,2.90
2023-04-02T00:55:03.704Z,4.10
2023-04-02T00:57:33.582Z,3.50
2023-04-02T01:00:19.737Z,3.40
2023-04-02T01:03:13.229Z,2.40
2023-04-02T01:05:42.660Z,2.60
2023-04-02T01:08:29.974Z,2.40
2023-04-02T01:11:09.088Z,2.50
2023-04-02T01:13:41.959Z,2.00
2023-04-02T01:16:18.145Z,3.40
2023-04-02T01:18:58.358Z,1.40
2023-04-02T01:21:42.659Z,1.80
2023-04-02T01:24:13.200Z,3.60
2023-04-02T01:27:02.335Z,2.40
2023-04-02T01:29:45.530Z,3.90
2023-04-02T01:32:15.708Z,3.80
2023-04-02T01:34:44.906Z,3.70
2023-04-02T01:37:23.096Z,6.30
2023-04-02T01:39:59.944Z,3.50
2023-04-02T01:42:39.058Z,3.30
2023-04-02T01:45:15.797Z,3.80
2023-04-02T01:47:44.081Z,4.70
2023-04-02T01:50:20.431Z,5.70
2023-04-02T01:52:55.658Z,4.00
2023-04-02T01:55:39.035Z,1.30
2023-04-02T01:58:06.815Z,1.60
2023-04-02T02:00:37.554Z,3.30
2023-04-02T02:03:06.366Z,1.80
2023-04-02T02:05:35.069Z,1.50
2023-04-02T02:08:02.910Z,1.40
2023-04-02T02:10:36.308Z,1.30
2023-04-02T02:13:03.859Z,2.00
2023-04-02T02:15:34.088Z,1.70
2023-04-02T02:18:05.566Z,1.60
2023-04-02T02:20:34.558Z,2.20
2023-04-02T02:23:04.312Z,1.80
2023-04-02T02:25:34.745Z,2.00
2023-04-02T02:28:02.106Z,1.90
2023-04-02T02:30:35.249Z,1.80
2023-04-02T02:33:14.542Z,1.80
2023-04-02T02:35:55.427Z,1.80
2023-04-02T02:38:39.732Z,2.30
2023-04-02T02:41:28.486Z,2.30
2023-04-02T02:43:59.328Z,2.00
2023-04-02T02:46:29.011Z,1.90
2023-04-02T02:48:58.819Z,2.20
2023-04-02T02:51:40.920Z,2.10
2023-04-02T02:54:09.738Z,2.00
2023-04-02T02:56:46.353Z,2.30
2023-04-02T02:59:16.116Z,2.40
2023-04-02T03:01:44.790Z,3.70
2023-04-02T03:04:12.358Z,2.60
2023-04-02T03:06:41.001Z,2.90
2023-04-02T03:09:25.867Z,2.50
2023-04-02T03:12:06.867Z,2.10
2023-04-02T03:14:42.748Z,2.70
2023-04-02T03:17:24.295Z,3.10
2023-04-02T03:20:06.591Z,2.90
2023-04-02T03:22:53.763Z,3.50
2023-04-02T03:25:41.886Z,3.70
2023-04-02T03:28:19.865Z,3.10
2023-04-02T03:30:58.429Z,4.10
2023-04-02T03:33:34.142Z,3.40
2023-04-02T03:36:13.258Z,4.00
2023-04-02T03:39:03.528Z,5.90
2023-04-02T03:41:43.019Z,3.60
2023-04-02T03:44:22.773Z,3.20
2023-04-02T03:46:57.723Z,4.40
2023-04-02T03:49:31.732Z,4.40
2023-04-02T03:52:29.488Z,4.60
2023-04-02T03:55:02.808Z,4.50
2023-04-02T03:57:43.007Z,5.80
2023-04-02T04:00:14.537Z,4.40
2023-04-02T04:02:59.361Z,5.90
2023-04-02T04:05:31.366Z,7.80
2023-04-02T04:08:14.359Z,6.70
2023-04-02T04:10:43.591Z,5.10
2023-04-02T04:13:18.133Z,5.30
2023-04-02T04:15:55.087Z,4.10
2023-04-02T04:18:29.890Z,4.50
2023-04-02T04:21:02.216Z,4.50
2023-04-02T04:23:38.099Z,4.80
2023-04-02T04:26:24.853Z,5.10
2023-04-02T04:29:05.639Z,5.90
2023-04-02T04:31:49.855Z,8.70
2023-04-02T04:34:32.466Z,4.80
2023-04-02T04:37:07.822Z,4.20
2023-04-02T04:39:47.759Z,11.70
2023-04-02T04:42:21.734Z,16.30
2023-04-02T04:45:00.190Z,20.50
2023-04-02T04:47:40.243Z,9.80
2023-04-02T04:50:26.449Z,25.50
2023-04-02T04:52:53.883Z,30.80
2023-04-02T04:55:38.686Z,33.30
2023-04-02T04:58:19.509Z,63.00
2023-04-02T05:01:10.662Z,73.90
2023-04-02T05:03:46.644Z,42.50
2023-04-02T05:06:37.968Z,20.80
2023-04-02T05:09:17.789Z,11.00
2023-04-02T05:11:52.030Z,11.20
2023-04-02T05:14:31.595Z,4.90
2023-04-02T05:17:13.705Z,7.90
2023-04-02T05:19:51.787Z,4.30
2023-04-02T05:22:29.414Z,5.00
2023-04-02T05:25:23.751Z,3.30
2023-04-02T05:28:13.417Z,5.90
2023-04-02T05:30:49.762Z,5.10
2023-04-02T05:33:22.502Z,4.20
2023-04-02T05:36:05.929Z,4.30
2023-04-02T05:38:39.300Z,3.40
2023-04-02T05:41:48.081Z,5.40
2023-04-02T05:44:40.962Z,7.60
2023-04-02T05:47:15.139Z,3.50
2023-04-02T05:49:44.528Z,8.40
2023-04-02T05:52:21.773Z,5.50
2023-04-02T05:55:13.802Z,5.10
2023-04-02T05:58:13.559Z,9.20
2023-04-02T06:00:40.858Z,7.90
2023-04-02T06:03:24.305Z,4.50
2023-04-02T06:05:56.981Z,3.30
2023-04-02T06:08:35.622Z,10.20
2023-04-02T06:11:24.073Z,6.30
2023-04-02T06:13:52.118Z,8.40
2023-04-02T06:16:25.425Z,3.40
2023-04-02T06:18:53.198Z,5.00
2023-04-02T06:21:22.353Z,6.40
2023-04-02T06:24:05.901Z,6.30
2023-04-02T06:26:52.118Z,11.70
2023-04-02T06:29:39.702Z,13.20
2023-04-02T06:32:12.419Z,7.40
2023-04-02T06:34:42.812Z,9.50
2023-04-02T06:37:30.173Z,10.60
2023-04-02T06:40:27.934Z,10.00
2023-04-02T06:42:59.964Z,5.60
2023-04-02T06:46:06.943Z,9.70
2023-04-02T06:48:50.675Z,19.80
2023-04-02T06:51:20.801Z,14.30
2023-04-02T06:53:49.619Z,8.50
2023-04-02T06:56:41.780Z,6.10
2023-04-02T06:59:10.420Z,7.00
2023-04-02T07:01:51.474Z,5.00
2023-04-02T07:04:20.585Z,5.70
2023-04-02T07:06:51.148Z,6.10
2023-04-02T07:09:19.770Z,4.60
2023-04-02T07:11:50.995Z,33.00
2023-04-02T07:14:19.065Z,56.50
2023-04-02T07:16:46.470Z,28.50
2023-04-02T07:19:20.211Z,7.40
2023-04-02T07:21:48.999Z,7.20
2023-04-02T07:24:16.572Z,6.30
2023-04-02T07:26:43.918Z,8.50
2023-04-02T07:29:16.106Z,8.60
2023-04-02T07:31:44.153Z,32.90
2023-04-02T07:34:11.244Z,168.70
2023-04-02T07:36:38.499Z,311.00
2023-04-02T07:39:05.692Z,225.70
2023-04-02T07:41:32.914Z,190.40
2023-04-02T07:44:00.156Z,313.70
2023-04-02T07:46:27.350Z,262.40
2023-04-02T07:48:54.608Z,201.10
2023-04-02T07:51:24.852Z,314.00
2023-04-02T07:53:56.357Z,142.30
2023-04-02T07:56:25.170Z,261.40
2023-04-02T07:58:52.660Z,154.10
2023-04-02T08:01:26.153Z,92.60
2023-04-02T08:03:57.706Z,117.50
2023-04-02T08:06:25.828Z,77.90
2023-04-02T08:08:53.378Z,19.50
2023-04-02T08:11:20.576Z,16.10
2023-04-02T08:13:47.995Z,12.90
2023-04-02T08:16:15.518Z,32.40
2023-04-02T08:18:42.690Z,21.40
2023-04-02T08:21:11.171Z,11.70
2023-04-02T08:23:38.760Z,9.30
2023-04-02T08:26:06.730Z,12.30
2023-04-02T08:28:34.365Z,50.10
2023-04-02T08:31:02.264Z,81.50
2023-04-02T08:33:29.564Z,115.80
2023-04-02T08:35:56.793Z,28.90
2023-04-02T08:38:24.066Z,31.10
2023-04-02T08:40:54.481Z,36.60
2023-04-02T08:43:37.620Z,44.60
2023-04-02T08:46:12.203Z,32.90
2023-04-02T08:48:44.129Z,50.60
2023-04-02T08:51:29.905Z,44.30
2023-04-02T08:54:11.787Z,58.10
2023-04-02T08:56:44.550Z,50.10
2023-04-02T08:59:33.745Z,23.20
2023-04-02T09:02:11.923Z,19.20
2023-04-02T09:04:41.130Z,9.60
2023-04-02T09:07:14.386Z,9.80
2023-04-02T09:09:41.745Z,8.90
2023-04-02T09:12:21.166Z,7.50
2023-04-02T09:14:54.610Z,9.00
2023-04-02T09:17:25.021Z,11.60
2023-04-02T09:20:17.352Z,13.60
2023-04-02T09:22:47.271Z,16.30
2023-04-02T09:25:22.648Z,12.50
2023-04-02T09:27:53.443Z,14.20
2023-04-02T09:30:38.517Z,20.80
2023-04-02T09:33:10.070Z,83.10
2023-04-02T09:35:54.565Z,28.10
2023-04-02T09:38:28.245Z,13.40
2023-04-02T09:40:55.724Z,9.50
2023-04-02T09:43:29.069Z,10.80
2023-04-02T09:46:04.214Z,10.50
2023-04-02T09:48:41.522Z,8.10
2023-04-02T09:51:20.423Z,15.60
2023-04-02T09:53:49.980Z,12.60
2023-04-02T09:56:25.775Z,17.10
2023-04-02T09:59:16.666Z,26.30
2023-04-02T10:01:56.060Z,99.60
2023-04-02T10:04:48.083Z,44.90
2023-04-02T10:07:38.320Z,91.60
2023-04-02T10:10:19.752Z,44.80
2023-04-02T10:12:54.098Z,23.40
2023-04-02T10:15:27.551Z,15.20
2023-04-02T10:18:07.009Z,9.20
2023-04-02T10:20:48.577Z,7.60
2023-04-02T10:23:19.493Z,9.60
2023-04-02T10:26:14.825Z,8.40
2023-04-02T10:29:07.232Z,11.80
2023-04-02T10:31:44.364Z,11.40
2023-04-02T10:34:23.642Z,10.20
2023-04-02T10:36:55.405Z,8.30
2023-04-02T10:39:26.316Z,9.40
2023-04-02T10:41:57.866Z,24.20
2023-04-02T10:44:36.897Z,16.20
2023-04-02T10:47:13.886Z,10.90
2023-04-02T10:49:56.182Z,7.60
2023-04-02T10:52:23.354Z,5.10
2023-04-02T10:54:52.810Z,9.70
2023-04-02T10:57:32.060Z,15.50
2023-04-02T11:00:08.239Z,16.50
2023-04-02T11:02:54.312Z,8.40
2023-04-02T11:05:50.995Z,7.10
2023-04-02T11:08:26.518Z,8.20
2023-04-02T11:11:05.597Z,15.70
2023-04-02T11:13:50.902Z,7.30
2023-04-02T11:16:18.606Z,14.60
2023-04-02T11:19:09.009Z,19.60
2023-04-02T11:21:55.462Z,8.70
2023-04-02T11:24:50.111Z,19.30
2023-04-02T11:27:20.874Z,10.20
2023-04-02T11:30:08.184Z,24.90
2023-04-02T11:32:56.400Z,12.90
2023-04-02T11:35:32.862Z,17.50
2023-04-02T11:38:04.346Z,13.90
2023-04-02T11:40:55.996Z,18.80
2023-04-02T11:43:36.092Z,14.00
2023-04-02T11:46:25.118Z,65.40
2023-04-02T11:48:54.839Z,34.90
2023-04-02T11:51:24.794Z,18.60
2023-04-02T11:53:54.082Z,25.70
2023-04-02T11:56:28.548Z,16.60
2023-04-02T11:59:13.907Z,23.70
2023-04-02T12:02:05.898Z,21.40
2023-04-02T12:04:45.879Z,16.70
2023-04-02T12:07:52.273Z,27.40
2023-04-02T12:10:22.671Z,51.80
2023-04-02T12:12:50.908Z,151.40
2023-04-02T12:15:44.923Z,128.80
2023-04-02T12:18:25.300Z,96.60
2023-04-02T12:20:56.102Z,58.80
2023-04-02T12:23:31.559Z,29.50
2023-04-02T12:26:24.329Z,37.20
2023-04-02T12:28:51.535Z,41.70
2023-04-02T12:31:22.635Z,11.30
2023-04-02T12:33:52.815Z,9.90
2023-04-02T12:36:22.824Z,11.60
2023-04-02T12:38:56.094Z,5.70
2023-04-02T12:41:32.939Z,11.70
2023-04-02T12:44:11.799Z,29.00
2023-04-02T12:46:40.145Z,23.70
2023-04-02T12:49:20.170Z,20.00
2023-04-02T12:51:48.499Z,16.00
2023-04-02T12:54:17.680Z,14.40
2023-04-02T12:56:44.917Z,8.60
2023-04-02T12:59:36.139Z,15.80
2023-04-02T13:02:17.932Z,25.40
2023-04-02T13:04:53.539Z,29.20
2023-04-02T13:07:23.808Z,32.30
2023-04-02T13:09:56.119Z,47.20
2023-04-02T13:12:41.867Z,39.10
2023-04-02T13:15:32.357Z,36.60
2023-04-02T13:18:19.428Z,73.90
2023-04-02T13:21:06.966Z,20.70
2023-04-02T13:23:37.497Z,20.50
2023-04-02T13:26:18.904Z,41.40
2023-04-02T13:29:12.421Z,26.20
2023-04-02T13:31:39.678Z,23.70
2023-04-02T13:34:07.257Z,16.00
2023-04-02T13:36:34.889Z,23.20
2023-04-02T13:39:02.020Z,15.30
2023-04-02T13:41:32.259Z,35.60
2023-04-02T13:44:02.694Z,25.20
2023-04-02T13:46:32.662Z,10.60
2023-04-02T13:49:00.173Z,20.10
2023-04-02T13:51:39.616Z,11.90
2023-04-02T13:54:14.510Z,9.80
2023-04-02T13:56:41.948Z,10.90
2023-04-02T13:59:09.047Z,14.50
2023-04-02T14:01:37.570Z,13.60
2023-04-02T14:04:06.346Z,49.00
2023-04-02T14:06:55.315Z,12.00
2023-04-02T14:09:45.118Z,46.50
2023-04-02T14:12:53.071Z,25.80
2023-04-02T14:15:27.637Z,13.80
2023-04-02T14:18:03.681Z,12.30
2023-04-02T14:20:36.870Z,6.80
2023-04-02T14:23:15.774Z,5.60
2023-04-02T14:26:07.551Z,4.40
2023-04-02T14:29:01.659Z,3.10
2023-04-02T14:31:46.969Z,2.70
2023-04-02T14:34:35.505Z,5.00
2023-04-02T14:37:20.508Z,6.30
2023-04-02T14:39:56.430Z,15.70
2023-04-02T14:42:57.431Z,6.40
2023-04-02T14:45:37.229Z,7.40
2023-04-02T14:48:30.315Z,61.20
2023-04-02T14:51:07.541Z,50.40
2023-04-02T14:53:47.423Z,130.70
2023-04-02T14:56:16.264Z,292.20
2023-04-02T14:58:52.936Z,1164.80
2023-04-02T15:01:35.500Z,425.20
2023-04-02T15:04:16.087Z,496.50
2023-04-02T15:06:46.155Z,408.00
2023-04-02T15:09:19.917Z,604.80
2023-04-02T15:12:07.487Z,502.80
2023-04-02T15:14:44.461Z,382.30
2023-04-02T15:17:12.502Z,468.20
2023-04-02T15:19:39.875Z,739.40
2023-04-02T15:22:16.525Z,372.70
2023-04-02T15:24:52.735Z,255.50
2023-04-02T15:27:26.199Z,146.90
2023-04-02T15:30:13.311Z,115.10
2023-04-02T15:32:43.290Z,87.00
2023-04-02T15:35:31.628Z,61.10
2023-04-02T15:38:07.808Z,49.40
2023-04-02T15:40:59.920Z,81.70
2023-04-02T15:43:52.079Z,16.20
2023-04-02T15:46:25.028Z,10.80
2023-04-02T15:49:20.165Z,7.50
2023-04-02T15:52:15.097Z,8.40
2023-04-02T15:55:01.370Z,8.00
2023-04-02T15:57:54.733Z,7.10
2023-04-02T16:00:33.618Z,6.50
2023-04-02T16:03:34.766Z,16.90
2023-04-02T16:06:17.341Z,8.50
2023-04-02T16:08:57.281Z,10.40
2023-04-02T16:11:26.296Z,23.70
2023-04-02T16:14:26.323Z,25.00
2023-04-02T16:16:59.079Z,15.90
2023-04-02T16:19:34.532Z,26.50
2023-04-02T16:22:24.531Z,19.60
2023-04-02T16:25:02.012Z,7.00
2023-04-02T16:27:43.177Z,19.40
2023-04-02T16:30:12.994Z,12.50
2023-04-02T16:32:49.157Z,13.20
2023-04-02T16:35:47.729Z,15.60
2023-04-02T16:38:25.016Z,8.10
2023-04-02T16:41:09.404Z,26.70
2023-04-02T16:43:48.642Z,42.80
2023-04-02T16:46:31.693Z,20.60
2023-04-02T16:49:21.178Z,8.90
2023-04-02T16:52:14.224Z,19.20
2023-04-02T16:55:05.773Z,37.60
2023-04-02T16:57:57.397Z,82.10
2023-04-02T17:00:39.808Z,42.10
2023-04-02T17:03:28.692Z,18.30
2023-04-02T17:06:06.879Z,15.70
2023-04-02T17:08:44.603Z,13.00
2023-04-02T17:11:24.831Z,9.10
2023-04-02T17:14:13.482Z,5.70
2023-04-02T17:16:45.939Z,6.50
2023-04-02T17:19:16.145Z,6.30
2023-04-02T17:21:49.395Z,9.00
2023-04-02T17:24:27.349Z,7.00
2023-04-02T17:27:03.896Z,12.90
2023-04-02T17:29:38.297Z,6.20
2023-04-02T17:32:17.041Z,15.90
2023-04-02T17:34:44.384Z,15.70
2023-04-02T17:37:31.285Z,11.40
2023-04-02T17:40:23.824Z,16.10
2023-04-02T17:43:04.170Z,27.00
2023-04-02T17:45:48.110Z,82.10
2023-04-02T17:48:19.561Z,40.40
2023-04-02T17:50:49.364Z,20.40
2023-04-02T17:53:22.908Z,18.20
2023-04-02T17:56:05.285Z,35.20
2023-04-02T17:58:52.331Z,87.70
2023-04-02T18:01:49.702Z,60.40
2023-04-02T18:04:31.506Z,52.70
2023-04-02T18:07:20.345Z,44.70
2023-04-02T18:10:26.481Z,49.20
2023-04-02T18:12:58.418Z,69.10
2023-04-02T18:15:58.617Z,46.80
2023-04-02T18:18:58.585Z,29.30
2023-04-02T18:21:47.320Z,10.00
2023-04-02T18:24:33.005Z,15.20
2023-04-02T18:27:27.255Z,7.60
2023-04-02T18:30:18.734Z,8.50
2023-04-02T18:32:54.799Z,315.50
2023-04-02T18:35:35.592Z,465.70
2023-04-02T18:38:02.839Z,416.60
2023-04-02T18:40:54.572Z,303.60
2023-04-02T18:43:59.647Z,252.50
2023-04-02T18:46:40.027Z,244.80
2023-04-02T18:49:28.807Z,152.50
2023-04-02T18:52:00.450Z,90.60
2023-04-02T18:54:30.629Z,49.70
2023-04-02T18:56:58.185Z,71.90
2023-04-02T18:59:49.739Z,17.30
2023-04-02T19:02:40.634Z,8.10
2023-04-02T19:05:29.431Z,12.40
2023-04-02T19:08:04.489Z,24.50
2023-04-02T19:10:34.455Z,11.30
2023-04-02T19:13:01.736Z,13.90
2023-04-02T19:15:38.635Z,11.40
2023-04-02T19:18:14.906Z,8.30
2023-04-02T19:20:50.463Z,23.40
2023-04-02T19:23:43.109Z,20.10
2023-04-02T19:26:15.575Z,12.60
2023-04-02T19:28:57.575Z,15.50
2023-04-02T19:31:49.597Z,16.00
2023-04-02T19:34:24.219Z,15.50
2023-04-02T19:37:01.139Z,16.50
2023-04-02T19:39:38.712Z,21.00
2023-04-02T19:42:17.864Z,11.80
2023-04-02T19:44:48.676Z,26.80
2023-04-02T19:47:18.702Z,12.40
2023-04-02T19:49:46.132Z,13.60
2023-04-02T19:52:13.529Z,16.40
2023-04-02T19:54:40.738Z,22.80
2023-04-02T19:57:08.069Z,15.40
2023-04-02T19:59:35.703Z,24.00
2023-04-02T20:02:06.691Z,13.50
2023-04-02T20:04:34.250Z,17.80
2023-04-02T20:07:01.533Z,20.10
2023-04-02T20:09:29.943Z,7.90
2023-04-02T20:11:57.090Z,9.40
2023-04-02T20:14:24.250Z,22.80
2023-04-02T20:16:51.494Z,16.90
2023-04-02T20:19:18.734Z,21.30
2023-04-02T20:21:46.059Z,24.00
2023-04-02T20:24:13.280Z,14.50
2023-04-02T20:26:40.565Z,21.10
2023-04-02T20:29:07.780Z,15.50
2023-04-02T20:31:35.524Z,17.20
2023-04-02T20:34:05.494Z,14.40
2023-04-02T20:36:32.950Z,12.30
2023-04-02T20:39:00.272Z,18.00
2023-04-02T20:41:27.625Z,15.00
2023-04-02T20:43:54.925Z,11.00
2023-04-02T20:46:22.522Z,22.90
2023-04-02T20:48:49.858Z,15.40
2023-04-02T20:51:17.414Z,17.60
2023-04-02T20:53:44.625Z,11.40
2023-04-02T20:56:14.583Z,17.50
2023-04-02T20:58:42.590Z,41.50
2023-04-02T21:01:22.218Z,33.80
2023-04-02T21:03:53.998Z,23.10
2023-04-02T21:06:23.310Z,53.20
2023-04-02T21:08:51.064Z,19.40
2023-04-02T21:11:19.667Z,33.70
2023-04-02T21:13:46.921Z,26.40
2023-04-02T21:16:28.830Z,75.30
2023-04-02T21:18:58.618Z,901.60
2023-04-02T21:21:26.589Z,977.00
2023-04-02T21:23:56.771Z,1308.50
2023-04-02T21:26:24.174Z,1426.30
2023-04-02T21:28:51.296Z,896.80
2023-04-02T21:31:22.915Z,711.30
2023-04-02T21:33:55.762Z,492.40
2023-04-02T21:36:25.724Z,542.20
2023-04-02T21:38:56.166Z,779.40
2023-04-02T21:41:29.580Z,620.60
2023-04-02T21:43:58.870Z,775.00
2023-04-02T21:46:28.489Z,995.50
2023-04-02T21:48:57.803Z,924.50
2023-04-02T21:51:27.668Z,719.50
2023-04-02T21:53:55.535Z,662.00
2023-04-02T21:56:25.020Z,822.50
2023-04-02T21:58:52.786Z,732.70
2023-04-02T22:01:27.392Z,541.20
2023-04-02T22:04:00.875Z,407.00
2023-04-02T22:06:30.619Z,439.90
2023-04-02T22:09:03.007Z,420.80
2023-04-02T22:11:36.465Z,193.00
2023-04-02T22:14:04.770Z,183.70
2023-04-02T22:16:33.821Z,112.40
2023-04-02T22:19:04.631Z,168.10
2023-04-02T22:21:32.520Z,143.50
2023-04-02T22:24:04.232Z,106.90
2023-04-02T22:26:32.628Z,74.10
2023-04-02T22:29:00.794Z,76.80
2023-04-02T22:31:30.532Z,44.60
2023-04-02T22:33:58.466Z,17.50
2023-04-02T22:36:28.016Z,16.50
2023-04-02T22:38:56.753Z,12.80
2023-04-02T22:41:32.143Z,17.60
2023-04-02T22:44:01.268Z,12.50
2023-04-02T22:46:29.527Z,11.10
2023-04-02T22:48:57.531Z,8.90
2023-04-02T22:51:26.121Z,26.60
2023-04-02T22:53:55.200Z,11.10
2023-04-02T22:56:26.825Z,19.40
2023-04-02T22:58:54.208Z,16.70
2023-04-02T23:01:25.080Z,10.40
2023-04-02T23:03:56.147Z,9.00
2023-04-02T23:06:24.848Z,10.20
2023-04-02T23:08:52.483Z,9.80
2023-04-02T23:11:23.065Z,12.80
2023-04-02T23:13:52.181Z,11.50
2023-04-02T23:16:20.112Z,9.20
2023-04-02T23:18:48.674Z,12.50
2023-04-02T23:21:17.401Z,10.60
2023-04-02T23:23:45.765Z,9.10
2023-04-02T23:26:19.824Z,11.30
2023-04-02T23:28:47.612Z,12.10
2023-04-02T23:31:17.370Z,10.90
2023-04-02T23:33:44.959Z,13.60
2023-04-02T23:36:18.766Z,17.30
2023-04-02T23:38:46.415Z,9.90
2023-04-02T23:41:17.884Z,12.30
2023-04-02T23:43:45.009Z,11.20
2023-04-02T23:46:12.386Z,12.00
2023-04-02T23:48:39.793Z,8.90
2023-04-02T23:51:07.125Z,6.90
2023-04-02T23:53:35.352Z,26.40
2023-04-02T23:56:02.574Z,53.60
2023-04-02T23:58:29.830Z,24.30
